createdAt,value
2022-09-28T00:01:28.294Z,11.57
2022-09-28T00:03:59.711Z,14.13
2022-09-28T00:06:28.162Z,14.77
2022-09-28T00:08:55.790Z,11.97
2022-09-28T00:11:26.106Z,10.57
2022-09-28T00:13:56.667Z,10.37
2022-09-28T00:16:28.797Z,12.83
2022-09-28T00:18:56.452Z,13.57
2022-09-28T00:21:24.971Z,13.37
2022-09-28T00:24:12.181Z,12.83
2022-09-28T00:26:48.899Z,11.33
2022-09-28T00:29:18.317Z,13.63
2022-09-28T00:31:46.043Z,12.37
2022-09-28T00:34:13.928Z,11.47
2022-09-28T00:36:43.941Z,12.17
2022-09-28T00:39:11.858Z,14.60
2022-09-28T00:41:39.067Z,14.77
2022-09-28T00:44:24.789Z,12.70
2022-09-28T00:47:11.124Z,14.27
2022-09-28T00:49:38.398Z,14.97
2022-09-28T00:52:06.848Z,12.13
2022-09-28T00:54:34.734Z,11.57
2022-09-28T00:57:03.134Z,12.33
2022-09-28T00:59:31.358Z,13.70
2022-09-28T01:01:58.886Z,15.00
2022-09-28T01:04:29.876Z,11.90
2022-09-28T01:06:58.056Z,16.73
2022-09-28T01:09:26.707Z,14.67
2022-09-28T01:11:55.307Z,17.00
2022-09-28T01:14:25.750Z,15.90
2022-09-28T01:16:55.928Z,14.47
2022-09-28T01:19:43.165Z,15.53
2022-09-28T01:22:29.341Z,16.20
2022-09-28T01:25:06.298Z,18.97
2022-09-28T01:27:36.159Z,15.93
2022-09-28T01:30:07.527Z,17.33
2022-09-28T01:32:43.886Z,18.83
2022-09-28T01:35:15.369Z,18.10
2022-09-28T01:37:42.667Z,17.00
2022-09-28T01:40:10.637Z,18.63
2022-09-28T01:42:39.654Z,19.67
2022-09-28T01:45:10.171Z,16.13
2022-09-28T01:47:39.091Z,19.47
2022-09-28T01:50:11.522Z,17.70
2022-09-28T01:52:42.810Z,18.57
2022-09-28T01:55:26.902Z,18.93
2022-09-28T01:57:57.437Z,20.40
2022-09-28T02:00:25.168Z,21.00
2022-09-28T02:03:02.704Z,16.60
2022-09-28T02:05:40.459Z,24.20
2022-09-28T02:08:14.944Z,17.23
2022-09-28T02:10:48.373Z,21.50
2022-09-28T02:13:25.398Z,18.97
2022-09-28T02:15:55.274Z,18.67
2022-09-28T02:18:22.581Z,18.67
2022-09-28T02:20:57.502Z,20.33
2022-09-28T02:23:27.378Z,15.90
2022-09-28T02:25:56.840Z,35.50
2022-09-28T02:28:23.974Z,16.27
2022-09-28T02:30:51.491Z,17.10
2022-09-28T02:33:32.076Z,17.43
2022-09-28T02:35:59.887Z,15.57
2022-09-28T02:38:27.435Z,18.73
2022-09-28T02:41:00.322Z,17.83
2022-09-28T02:43:31.333Z,17.27
2022-09-28T02:46:02.113Z,16.57
2022-09-28T02:48:43.676Z,15.97
2022-09-28T02:51:14.040Z,15.37
2022-09-28T02:53:59.734Z,14.47
2022-09-28T02:56:26.958Z,18.70
2022-09-28T02:59:14.358Z,15.67
2022-09-28T03:02:02.328Z,13.97
2022-09-28T03:04:34.926Z,14.73
2022-09-28T03:07:07.433Z,15.77
2022-09-28T03:09:50.044Z,15.60
2022-09-28T03:12:19.157Z,16.63
2022-09-28T03:14:46.664Z,14.37
2022-09-28T03:17:13.781Z,14.07
2022-09-28T03:19:40.934Z,17.33
2022-09-28T03:22:08.185Z,17.67
2022-09-28T03:24:35.391Z,14.43
2022-09-28T03:27:02.544Z,14.17
2022-09-28T03:29:31.570Z,15.00
2022-09-28T03:31:58.844Z,14.30
2022-09-28T03:34:26.066Z,13.87
2022-09-28T03:36:53.232Z,13.70
2022-09-28T03:39:20.433Z,14.27
2022-09-28T03:41:47.573Z,17.60
2022-09-28T03:44:14.738Z,13.20
2022-09-28T03:46:43.057Z,14.27
2022-09-28T03:49:10.650Z,13.93
2022-09-28T03:51:38.042Z,15.57
2022-09-28T03:54:05.680Z,15.67
2022-09-28T03:56:33.068Z,16.00
2022-09-28T03:59:00.203Z,16.10
2022-09-28T04:01:27.422Z,17.80
2022-09-28T04:03:55.960Z,16.73
2022-09-28T04:06:23.606Z,14.30
2022-09-28T04:08:50.856Z,13.73
2022-09-28T04:11:18.329Z,15.53
2022-09-28T04:13:48.447Z,15.93
2022-09-28T04:16:16.257Z,14.37
2022-09-28T04:18:44.081Z,14.50
2022-09-28T04:21:12.328Z,14.77
2022-09-28T04:23:40.246Z,18.93
2022-09-28T04:26:08.339Z,23.27
2022-09-28T04:28:54.218Z,18.80
2022-09-28T04:31:22.785Z,16.83
2022-09-28T04:33:50.408Z,17.37
2022-09-28T04:36:19.739Z,18.07
2022-09-28T04:38:53.170Z,17.30
2022-09-28T04:41:22.482Z,17.00
2022-09-28T04:43:50.349Z,19.03
2022-09-28T04:46:17.794Z,16.03
2022-09-28T04:48:45.355Z,17.93
2022-09-28T04:51:12.653Z,17.87
2022-09-28T04:53:39.876Z,19.13
2022-09-28T04:56:08.988Z,15.90
2022-09-28T04:58:36.559Z,15.67
2022-09-28T05:01:06.032Z,17.67
2022-09-28T05:03:34.040Z,20.80
2022-09-28T05:06:01.619Z,18.97
2022-09-28T05:08:29.299Z,16.67
2022-09-28T05:11:03.110Z,17.73
2022-09-28T05:13:30.856Z,15.97
2022-09-28T05:16:04.446Z,19.47
2022-09-28T05:18:32.604Z,22.17
2022-09-28T05:20:59.852Z,18.97
2022-09-28T05:23:27.115Z,16.33
2022-09-28T05:25:54.317Z,17.40
2022-09-28T05:28:25.280Z,17.07
2022-09-28T05:30:52.506Z,18.30
2022-09-28T05:33:19.651Z,17.90
2022-09-28T05:35:51.056Z,18.07
2022-09-28T05:38:20.530Z,17.37
2022-09-28T05:40:47.858Z,23.23
2022-09-28T05:43:15.166Z,17.07
2022-09-28T05:45:42.499Z,17.80
2022-09-28T05:48:09.670Z,22.17
2022-09-28T05:50:36.823Z,18.43
2022-09-28T05:53:05.759Z,23.30
2022-09-28T05:55:33.609Z,20.23
2022-09-28T05:58:04.172Z,18.70
2022-09-28T06:00:32.342Z,18.23
2022-09-28T06:03:08.084Z,22.03
2022-09-28T06:05:36.872Z,17.47
2022-09-28T06:08:05.326Z,18.07
2022-09-28T06:10:33.298Z,19.23
2022-09-28T06:13:00.642Z,19.50
2022-09-28T06:15:29.122Z,20.27
2022-09-28T06:18:00.387Z,17.07
2022-09-28T06:20:28.318Z,18.33
2022-09-28T06:22:55.886Z,19.47
2022-09-28T06:25:23.553Z,17.13
2022-09-28T06:27:56.849Z,17.63
2022-09-28T06:30:26.856Z,18.57
2022-09-28T06:32:55.157Z,20.47
2022-09-28T06:35:22.582Z,20.33
2022-09-28T06:37:49.800Z,17.47
2022-09-28T06:40:17.017Z,17.13
2022-09-28T06:42:44.725Z,15.70
2022-09-28T06:45:12.108Z,15.70
2022-09-28T06:47:39.268Z,18.90
2022-09-28T06:50:12.144Z,18.20
2022-09-28T06:52:39.504Z,18.43
2022-09-28T06:55:06.868Z,15.80
2022-09-28T06:57:34.079Z,17.37
2022-09-28T07:00:01.456Z,17.67
2022-09-28T07:02:28.651Z,16.90
2022-09-28T07:04:55.847Z,15.13
2022-09-28T07:07:22.994Z,16.60
2022-09-28T07:09:55.364Z,16.27
2022-09-28T07:12:24.568Z,18.40
2022-09-28T07:14:56.315Z,19.73
2022-09-28T07:17:24.134Z,20.20
2022-09-28T07:19:52.697Z,16.83
2022-09-28T07:22:33.698Z,18.43
2022-09-28T07:25:08.007Z,17.67
2022-09-28T07:27:37.318Z,18.33
2022-09-28T07:30:07.589Z,17.97
2022-09-28T07:32:37.513Z,18.13
2022-09-28T07:35:09.386Z,20.10
2022-09-28T07:37:36.924Z,18.03
2022-09-28T07:40:23.951Z,16.87
2022-09-28T07:42:51.178Z,16.97
2022-09-28T07:45:20.708Z,18.27
2022-09-28T07:47:47.981Z,17.13
2022-09-28T07:50:15.185Z,16.53
2022-09-28T07:52:43.194Z,16.00
2022-09-28T07:55:10.657Z,17.23
2022-09-28T07:57:37.835Z,16.60
2022-09-28T08:00:07.367Z,15.20
2022-09-28T08:02:35.329Z,17.17
2022-09-28T08:05:03.187Z,16.83
2022-09-28T08:07:32.530Z,16.10
2022-09-28T08:09:59.669Z,16.53
2022-09-28T08:12:26.879Z,15.43
2022-09-28T08:14:53.992Z,15.67
2022-09-28T08:17:21.162Z,15.23
2022-09-28T08:20:07.101Z,13.67
2022-09-28T08:22:34.311Z,12.60
2022-09-28T08:25:01.612Z,14.23
2022-09-28T08:27:29.019Z,12.60
2022-09-28T08:29:56.323Z,13.43
2022-09-28T08:32:24.869Z,11.63
2022-09-28T08:34:52.230Z,11.83
2022-09-28T08:37:19.673Z,11.30
2022-09-28T08:39:47.032Z,12.80
2022-09-28T08:42:15.676Z,12.83
2022-09-28T08:44:48.297Z,10.63
2022-09-28T08:47:45.025Z,13.90
2022-09-28T08:50:17.262Z,9.00
2022-09-28T08:52:46.476Z,8.20
2022-09-28T08:55:31.436Z,9.10
2022-09-28T08:58:07.678Z,8.23
2022-09-28T09:00:40.424Z,7.87
2022-09-28T09:03:10.280Z,9.47
2022-09-28T09:05:46.767Z,9.13
2022-09-28T09:08:13.884Z,8.97
2022-09-28T09:10:54.274Z,9.17
2022-09-28T09:13:24.430Z,10.13
2022-09-28T09:15:55.747Z,11.53
2022-09-28T09:18:41.546Z,13.93
2022-09-28T09:21:12.583Z,11.33
2022-09-28T09:23:47.711Z,12.57
2022-09-28T09:26:21.289Z,10.60
2022-09-28T09:28:50.132Z,9.47
2022-09-28T09:31:30.246Z,10.87
2022-09-28T09:34:03.437Z,12.57
2022-09-28T09:36:33.372Z,9.93
2022-09-28T09:39:06.425Z,12.50
2022-09-28T09:41:36.781Z,9.83
2022-09-28T09:44:16.740Z,10.47
2022-09-28T09:46:58.524Z,10.30
2022-09-28T09:49:27.179Z,8.97
2022-09-28T09:52:00.301Z,8.97
2022-09-28T09:54:27.423Z,8.73
2022-09-28T09:56:54.892Z,9.23
2022-09-28T09:59:24.283Z,8.40
2022-09-28T10:01:52.411Z,8.93
2022-09-28T10:04:30.521Z,8.67
2022-09-28T10:06:59.574Z,10.97
2022-09-28T10:09:53.172Z,9.70
2022-09-28T10:12:21.508Z,8.67
2022-09-28T10:14:49.570Z,11.03
2022-09-28T10:17:18.419Z,7.30
2022-09-28T10:19:45.584Z,9.70
2022-09-28T10:22:17.339Z,11.87
2022-09-28T10:24:46.411Z,9.07
2022-09-28T10:27:24.683Z,6.30
2022-09-28T10:29:51.829Z,6.30
2022-09-28T10:32:36.735Z,9.03
2022-09-28T10:35:18.810Z,7.23
2022-09-28T10:37:55.123Z,7.03
2022-09-28T10:40:40.807Z,10.70
2022-09-28T10:43:17.252Z,6.33
2022-09-28T10:45:44.492Z,6.70
2022-09-28T10:48:19.995Z,6.27
2022-09-28T10:51:01.445Z,13.87
2022-09-28T10:53:28.674Z,9.47
2022-09-28T10:56:00.359Z,7.33
2022-09-28T10:58:29.294Z,6.27
2022-09-28T11:01:01.804Z,8.63
2022-09-28T11:03:30.005Z,6.33
2022-09-28T11:06:07.714Z,7.97
2022-09-28T11:08:39.073Z,6.17
2022-09-28T11:11:10.642Z,5.00
2022-09-28T11:14:01.301Z,5.33
2022-09-28T11:16:32.782Z,3.63
2022-09-28T11:19:04.438Z,3.63
2022-09-28T11:21:34.465Z,4.50
2022-09-28T11:24:05.982Z,6.23
2022-09-28T11:26:41.031Z,2.97
2022-09-28T11:29:19.683Z,6.87
2022-09-28T11:31:47.209Z,7.63
2022-09-28T11:34:17.214Z,6.00
2022-09-28T11:37:02.957Z,5.17
2022-09-28T11:39:40.249Z,6.17
2022-09-28T11:42:23.546Z,5.20
2022-09-28T11:44:53.303Z,3.77
2022-09-28T11:47:23.506Z,3.73
2022-09-28T11:49:58.950Z,9.50
2022-09-28T11:52:27.559Z,5.10
2022-09-28T11:55:08.073Z,4.50
2022-09-28T11:57:37.466Z,6.67
2022-09-28T12:00:10.589Z,5.23
2022-09-28T12:02:42.422Z,4.87
2022-09-28T12:05:20.546Z,4.43
2022-09-28T12:07:49.551Z,6.13
2022-09-28T12:10:25.748Z,6.17
2022-09-28T12:13:01.064Z,3.67
2022-09-28T12:15:59.287Z,4.90
2022-09-28T12:18:41.230Z,6.60
2022-09-28T12:21:28.570Z,4.60
2022-09-28T12:23:57.625Z,6.80
2022-09-28T12:26:35.891Z,5.80
2022-09-28T12:29:10.976Z,6.93
2022-09-28T12:31:59.168Z,5.37
2022-09-28T12:34:26.373Z,5.33
2022-09-28T12:37:13.000Z,6.80
2022-09-28T12:39:56.647Z,6.27
2022-09-28T12:42:31.594Z,5.80
2022-09-28T12:45:09.835Z,5.33
2022-09-28T12:47:43.000Z,7.13
2022-09-28T12:50:39.951Z,5.07
2022-09-28T12:53:37.208Z,5.30
2022-09-28T12:56:10.173Z,4.87
2022-09-28T12:58:46.158Z,5.20
2022-09-28T13:01:25.774Z,6.30
2022-09-28T13:03:55.740Z,5.10
2022-09-28T13:06:26.409Z,5.70
2022-09-28T13:09:04.536Z,3.60
2022-09-28T13:11:32.051Z,6.53
2022-09-28T13:14:17.652Z,3.77
2022-09-28T13:16:47.591Z,3.87
2022-09-28T13:19:15.639Z,5.07
2022-09-28T13:21:57.847Z,4.10
2022-09-28T13:24:32.863Z,3.40
2022-09-28T13:27:04.594Z,5.07
2022-09-28T13:29:34.918Z,2.80
2022-09-28T13:32:03.434Z,2.23
2022-09-28T13:34:33.348Z,3.27
2022-09-28T13:37:20.001Z,2.50
2022-09-28T13:39:47.131Z,2.90
2022-09-28T13:42:25.784Z,3.37
2022-09-28T13:45:09.541Z,3.50
2022-09-28T13:47:36.675Z,4.33
2022-09-28T13:50:34.385Z,7.13
2022-09-28T13:53:02.353Z,3.30
2022-09-28T13:55:48.149Z,2.17
2022-09-28T13:58:33.212Z,2.53
2022-09-28T14:01:16.226Z,3.70
2022-09-28T14:03:55.418Z,3.37
2022-09-28T14:06:29.930Z,4.17
2022-09-28T14:09:19.015Z,3.53
2022-09-28T14:11:56.455Z,2.67
2022-09-28T14:14:29.777Z,3.07
2022-09-28T14:17:19.636Z,2.47
2022-09-28T14:19:52.830Z,2.27
2022-09-28T14:22:19.955Z,2.30
2022-09-28T14:25:06.450Z,2.93
2022-09-28T14:27:52.049Z,2.33
2022-09-28T14:30:24.157Z,2.07
2022-09-28T14:32:59.013Z,2.40
2022-09-28T14:35:33.598Z,2.30
2022-09-28T14:38:36.927Z,2.57
2022-09-28T14:41:13.644Z,2.63
2022-09-28T14:43:46.735Z,3.23
2022-09-28T14:46:14.614Z,3.93
2022-09-28T14:48:49.333Z,4.50
2022-09-28T14:51:38.028Z,3.20
2022-09-28T14:54:08.919Z,2.00
2022-09-28T14:56:46.519Z,1.60
2022-09-28T14:59:17.817Z,1.10
2022-09-28T15:01:48.039Z,2.37
2022-09-28T15:04:15.568Z,0.90
2022-09-28T15:06:50.111Z,1.50
2022-09-28T15:09:29.440Z,2.53
2022-09-28T15:12:13.101Z,1.97
2022-09-28T15:14:58.977Z,2.13
2022-09-28T15:17:27.983Z,1.90
2022-09-28T15:19:58.310Z,3.20
2022-09-28T15:22:25.461Z,1.93
2022-09-28T15:25:00.027Z,2.70
2022-09-28T15:27:36.575Z,1.73
2022-09-28T15:30:19.621Z,2.53
2022-09-28T15:32:46.799Z,2.00
2022-09-28T15:35:17.143Z,2.13
2022-09-28T15:37:44.902Z,1.70
2022-09-28T15:40:16.788Z,2.93
2022-09-28T15:42:47.276Z,1.70
2022-09-28T15:45:14.355Z,8.17
2022-09-28T15:47:43.735Z,2.97
2022-09-28T15:50:22.869Z,4.53
2022-09-28T15:52:52.803Z,4.67
2022-09-28T15:55:25.876Z,13.57
2022-09-28T15:58:06.135Z,6.77
2022-09-28T16:00:33.378Z,3.77
2022-09-28T16:03:03.908Z,3.43
2022-09-28T16:05:46.662Z,2.70
2022-09-28T16:08:22.095Z,2.60
2022-09-28T16:11:04.113Z,1.90
2022-09-28T16:13:31.351Z,2.03
2022-09-28T16:15:59.924Z,2.40
2022-09-28T16:18:28.107Z,4.17
2022-09-28T16:20:56.277Z,2.03
2022-09-28T16:23:34.288Z,2.10
2022-09-28T16:26:02.837Z,2.07
2022-09-28T16:28:39.160Z,1.40
2022-09-28T16:31:07.976Z,2.63
2022-09-28T16:33:46.898Z,5.33
2022-09-28T16:36:15.596Z,1.50
2022-09-28T16:38:46.296Z,2.33
2022-09-28T16:41:19.434Z,2.57
2022-09-28T16:43:47.075Z,1.80
2022-09-28T16:46:17.407Z,2.87
2022-09-28T16:48:48.624Z,3.27
2022-09-28T16:51:16.187Z,1.33
2022-09-28T16:54:01.969Z,1.63
2022-09-28T16:56:29.430Z,4.07
2022-09-28T16:58:56.610Z,5.17
2022-09-28T17:01:24.241Z,5.10
2022-09-28T17:03:51.507Z,3.30
2022-09-28T17:06:19.241Z,5.93
2022-09-28T17:08:46.437Z,2.77
2022-09-28T17:11:20.521Z,6.70
2022-09-28T17:13:50.717Z,2.27
2022-09-28T17:16:32.602Z,2.10
2022-09-28T17:19:31.023Z,2.17
2022-09-28T17:21:58.256Z,6.27
2022-09-28T17:24:25.372Z,1.93
2022-09-28T17:26:52.999Z,3.90
2022-09-28T17:29:20.373Z,2.50
2022-09-28T17:31:47.736Z,2.37
2022-09-28T17:34:16.320Z,2.63
2022-09-28T17:36:44.101Z,8.57
2022-09-28T17:39:12.869Z,4.50
2022-09-28T17:41:40.745Z,7.37
2022-09-28T17:44:08.014Z,7.47
2022-09-28T17:46:36.614Z,5.43
2022-09-28T17:49:05.068Z,6.47
2022-09-28T17:51:33.598Z,4.40
2022-09-28T17:54:01.231Z,4.10
2022-09-28T17:56:32.105Z,3.40
2022-09-28T17:59:11.454Z,2.40
2022-09-28T18:01:39.752Z,2.67
2022-09-28T18:04:08.809Z,2.77
2022-09-28T18:06:39.349Z,3.47
2022-09-28T18:09:06.507Z,3.43
2022-09-28T18:11:34.094Z,2.97
2022-09-28T18:14:01.580Z,3.13
2022-09-28T18:16:29.267Z,5.83
2022-09-28T18:18:56.438Z,3.10
2022-09-28T18:21:23.582Z,3.93
2022-09-28T18:23:50.927Z,5.43
2022-09-28T18:26:21.469Z,5.63
2022-09-28T18:28:48.822Z,2.83
2022-09-28T18:31:19.134Z,2.97
2022-09-28T18:36:35.643Z,2.30
2022-09-28T18:39:03.039Z,2.27
2022-09-28T18:41:30.178Z,4.90
2022-09-28T18:44:00.808Z,1.97
2022-09-28T18:46:28.944Z,1.50
2022-09-28T18:48:56.542Z,2.00
2022-09-28T18:51:24.351Z,2.23
2022-09-28T18:53:51.559Z,2.50
2022-09-28T18:56:19.417Z,5.17
2022-09-28T18:58:47.440Z,1.83
2022-09-28T19:01:31.772Z,4.17
2022-09-28T19:04:03.238Z,3.43
2022-09-28T19:06:31.748Z,3.60
2022-09-28T19:08:59.427Z,5.00
2022-09-28T19:11:26.880Z,4.93
2022-09-28T19:13:54.667Z,2.63
2022-09-28T19:16:23.988Z,1.37
2022-09-28T19:18:52.397Z,3.43
2022-09-28T19:21:20.204Z,1.83
2022-09-28T19:23:49.885Z,1.30
2022-09-28T19:26:21.401Z,1.47
2022-09-28T19:28:48.911Z,3.83
2022-09-28T19:31:16.841Z,6.27
2022-09-28T19:33:46.411Z,8.07
2022-09-28T19:36:15.589Z,4.63
2022-09-28T19:38:42.738Z,3.00
2022-09-28T19:41:44.825Z,4.87
2022-09-28T19:44:24.882Z,6.13
2022-09-28T19:46:54.759Z,2.30
2022-09-28T19:49:22.668Z,4.10
2022-09-28T19:52:11.663Z,2.27
2022-09-28T19:54:38.151Z,2.13
2022-09-28T19:57:07.696Z,4.40
2022-09-28T19:59:35.693Z,1.90
2022-09-28T20:02:03.510Z,2.10
2022-09-28T20:04:30.804Z,2.27
2022-09-28T20:06:57.907Z,4.13
2022-09-28T20:09:25.109Z,3.00
2022-09-28T20:11:53.057Z,4.60
2022-09-28T20:14:22.398Z,2.80
2022-09-28T20:16:54.347Z,2.83
2022-09-28T20:19:23.292Z,3.17
2022-09-28T20:21:50.562Z,3.17
2022-09-28T20:24:17.865Z,3.90
2022-09-28T20:26:45.977Z,4.03
2022-09-28T20:29:13.302Z,4.17
2022-09-28T20:31:40.800Z,3.50
2022-09-28T20:34:08.253Z,3.90
2022-09-28T20:36:35.517Z,4.73
2022-09-28T20:39:03.098Z,5.07
2022-09-28T20:41:36.716Z,7.53
2022-09-28T20:44:06.017Z,5.93
2022-09-28T20:46:33.939Z,14.07
2022-09-28T20:49:01.391Z,9.33
2022-09-28T20:51:28.523Z,8.37
2022-09-28T20:53:57.292Z,7.70
2022-09-28T20:56:25.944Z,9.83
2022-09-28T20:58:53.595Z,10.07
2022-09-28T21:01:24.697Z,9.73
2022-09-28T21:03:53.139Z,8.87
2022-09-28T21:06:21.893Z,8.27
2022-09-28T21:08:49.583Z,8.33
2022-09-28T21:11:20.994Z,8.20
2022-09-28T21:13:48.125Z,8.80
2022-09-28T21:16:18.004Z,7.37
2022-09-28T21:18:45.509Z,6.30
2022-09-28T21:21:14.393Z,9.03
2022-09-28T21:23:44.796Z,5.20
2022-09-28T21:26:13.610Z,5.90
2022-09-28T21:28:41.044Z,5.33
2022-09-28T21:31:09.442Z,5.80
2022-09-28T21:33:37.204Z,5.67
2022-09-28T21:36:05.904Z,6.87
2022-09-28T21:38:33.457Z,5.37
2022-09-28T21:41:00.983Z,5.53
2022-09-28T21:43:28.872Z,5.00
2022-09-28T21:45:56.873Z,5.13
2022-09-28T21:48:24.659Z,5.40
2022-09-28T21:51:11.901Z,6.27
2022-09-28T21:53:39.122Z,6.00
2022-09-28T21:56:07.400Z,5.53
2022-09-28T21:58:35.803Z,5.57
2022-09-28T22:01:14.749Z,7.27
2022-09-28T22:03:43.159Z,6.67
2022-09-28T22:06:10.319Z,6.87
2022-09-28T22:08:38.007Z,8.00
2022-09-28T22:11:06.834Z,7.03
2022-09-28T22:13:35.445Z,6.87
2022-09-28T22:16:02.935Z,7.30
2022-09-28T22:18:31.250Z,7.80
2022-09-28T22:21:02.016Z,6.20
2022-09-28T22:23:29.675Z,13.53
2022-09-28T22:26:04.503Z,7.17
2022-09-28T22:28:31.696Z,7.50
2022-09-28T22:30:58.979Z,9.87
2022-09-28T22:33:26.489Z,7.63
2022-09-28T22:35:53.758Z,7.23
2022-09-28T22:38:21.407Z,8.43
2022-09-28T22:40:52.387Z,9.90
2022-09-28T22:43:19.662Z,8.60
2022-09-28T22:45:47.084Z,10.17
2022-09-28T22:48:14.581Z,8.80
2022-09-28T22:50:51.485Z,9.53
2022-09-28T22:53:19.000Z,9.27
2022-09-28T22:55:46.144Z,9.90
2022-09-28T22:58:13.811Z,10.23
2022-09-28T23:00:40.940Z,10.20
2022-09-28T23:03:08.140Z,10.40
2022-09-28T23:05:35.340Z,11.37
2022-09-28T23:08:03.219Z,10.77
2022-09-28T23:10:30.593Z,14.83
2022-09-28T23:12:58.349Z,11.43
2022-09-28T23:15:26.147Z,12.50
2022-09-28T23:17:53.555Z,11.87
2022-09-28T23:20:21.430Z,11.80
2022-09-28T23:22:48.819Z,12.73
2022-09-28T23:25:16.790Z,13.03
2022-09-28T23:27:50.714Z,12.20
2022-09-28T23:30:19.916Z,11.17
2022-09-28T23:32:47.151Z,12.27
2022-09-28T23:35:14.749Z,12.53
2022-09-28T23:37:41.900Z,15.13
2022-09-28T23:40:09.175Z,12.50
2022-09-28T23:42:36.331Z,14.10
2022-09-28T23:45:03.582Z,13.67
2022-09-28T23:47:30.710Z,12.77
2022-09-28T23:49:57.812Z,12.63
2022-09-28T23:52:25.221Z,16.47
2022-09-28T23:54:52.323Z,12.83
2022-09-28T23:57:19.510Z,13.23
2022-09-28T23:59:46.640Z,15.20
